GUCY/CKY METAR and TAF weather

Enter ICAO airport designator
Station Type Date Time Source
GUCY METAR 2019/08/16 09:00 UTC NOAA

GUCY 160900Z 21006KT 3000 RA BKN010 OVC090 25/25 Q1014 NOSIG


Station Type Date Time Source
GUCY Decoded METAR 2019/08/16 09:00 UTC NOAA

Station name not available
Aug 16, 2019 - 05:00 AM EDT / 2019.08.16 0900 UTC
Wind: from the SSW (210 degrees) at 7 MPH (6 KT):0
Visibility: 1 mile(s):0
Sky conditions: overcast
Weather: rain
Temperature: 77 F (25 C)
Dew Point: 77 F (25 C)
Relative Humidity: 100%
Pressure (altimeter): 29.94 in. Hg (1014 hPa)
ob: GUCY 160900Z 21006KT 3000 RA BKN010 OVC090 25/25 Q1014 NOSIG
cycle: 9

Station Type Date Time Source
GUCY TAF 2019/08/16 06:25 UTC NOAA

TAF COR GUCY 160500Z 1606/1712 26006KT 9999 SCT015 SCT110
BECMG 1606/1610 VRB02KT 6000 -RA BKN013
TEMPO 1610/1615 16012KT 4000 -TSRA BKN012 FEW020CB OVC090

Example: see airport list